Time;durP1;ratioP1;P1;durP2;ratioP2;P2;SDS_P1;SDS_P2;PMS_P1;PMS_P2;Temp;Humidity;BMP_temperature;BMP_pressure;BME280_temperature;BME280_humidity;BME280_pressure;Samples;Min_cycle;Max_cycle;Signal;HPM_P1;HPM_P2
2022/07/09 00:02:13;;;;;;;8.30;4.90;;;16.30;99.90;;;;;;4999846;28;20418;-80
2022/07/09 00:04:43;;;;;;;5.80;4.40;;;16.30;99.90;;;;;;4998107;28;20858;-79
2022/07/09 00:07:11;;;;;;;6.77;4.60;;;16.20;99.90;;;;;;4999378;28;20441;-81
2022/07/09 00:09:39;;;;;;;7.00;5.30;;;16.20;99.90;;;;;;4996410;28;20494;-80
2022/07/09 00:12:08;;;;;;;6.13;4.40;;;16.20;99.90;;;;;;4996237;28;20428;-80
2022/07/09 00:14:37;;;;;;;6.10;5.50;;;16.20;99.90;;;;;;4995029;28;20458;-80
2022/07/09 00:17:05;;;;;;;10.17;5.50;;;16.20;99.90;;;;;;4995195;28;20439;-79
2022/07/09 00:19:33;;;;;;;9.37;5.30;;;16.20;99.90;;;;;;4996489;28;20443;-78
2022/07/09 00:22:05;;;;;;;7.67;6.20;;;16.20;99.90;;;;;;4996055;28;20796;-79
2022/07/09 00:24:33;;;;;;;6.23;5.60;;;16.10;99.90;;;;;;4996757;28;20430;-78
2022/07/09 00:27:01;;;;;;;6.00;4.50;;;16.10;99.90;;;;;;4996989;28;20412;-79
2022/07/09 00:29:30;;;;;;;8.70;5.37;;;16.10;99.90;;;;;;4996989;28;20495;-80
2022/07/09 00:31:58;;;;;;;8.67;6.10;;;16.10;99.90;;;;;;4996543;28;20933;-78
2022/07/09 00:34:26;;;;;;;7.23;5.80;;;16.10;99.90;;;;;;4996244;28;20424;-80
2022/07/09 00:36:54;;;;;;;9.07;7.33;;;16.10;99.90;;;;;;4996244;28;20430;-79
2022/07/09 00:39:24;;;;;;;7.23;6.50;;;16.10;99.90;;;;;;4996594;28;20447;-81
2022/07/09 00:42:02;;;;;;;9.50;7.63;;;16.10;99.90;;;;;;4995587;28;20481;-81
2022/07/09 00:44:31;;;;;;;7.60;6.63;;;16.00;99.90;;;;;;4995503;28;20439;-79
2022/07/09 00:46:59;;;;;;;9.43;7.00;;;16.00;99.90;;;;;;4995278;28;20792;-79
2022/07/09 00:49:30;;;;;;;8.63;7.70;;;16.00;99.90;;;;;;4995447;28;20452;-81
2022/07/09 00:51:58;;;;;;;9.17;8.20;;;16.00;99.90;;;;;;4997248;28;20478;-80
2022/07/09 00:54:28;;;;;;;10.23;7.70;;;16.00;99.90;;;;;;4995737;28;20941;-81
2022/07/09 00:56:56;;;;;;;8.50;7.50;;;16.00;99.90;;;;;;4997666;28;20471;-81
2022/07/09 00:59:25;;;;;;;9.07;8.00;;;16.00;99.90;;;;;;4995305;28;20542;-79
2022/07/09 01:01:53;;;;;;;8.90;7.27;;;16.00;99.90;;;;;;4995709;28;20438;-81
2022/07/09 01:04:21;;;;;;;8.30;7.47;;;16.00;99.90;;;;;;4995786;28;20427;-79
2022/07/09 01:06:50;;;;;;;9.67;7.37;;;16.00;99.90;;;;;;4994402;28;20424;-78
2022/07/09 01:09:21;;;;;;;9.00;8.27;;;16.00;99.90;;;;;;4995694;28;20547;-80
2022/07/09 01:11:51;;;;;;;7.50;6.63;;;16.00;99.90;;;;;;4995672;28;20544;-80
2022/07/09 01:14:19;;;;;;;9.53;8.20;;;16.00;99.90;;;;;;4997188;28;20436;-78
2022/07/09 01:16:47;;;;;;;7.90;7.20;;;15.90;99.90;;;;;;4995449;28;20538;-80
2022/07/09 01:19:16;;;;;;;8.13;7.33;;;15.90;99.90;;;;;;4996912;28;20850;-81
2022/07/09 01:21:45;;;;;;;8.37;7.57;;;15.90;99.90;;;;;;4995157;28;20489;-80
2022/07/09 01:24:13;;;;;;;9.80;7.73;;;15.90;99.90;;;;;;4995213;28;20431;-80
2022/07/09 01:26:41;;;;;;;9.17;8.17;;;15.80;99.90;;;;;;4995283;28;20491;-81
2022/07/09 01:29:10;;;;;;;8.90;7.43;;;15.80;99.90;;;;;;4996783;28;20420;-81
2022/07/09 01:31:38;;;;;;;8.40;7.70;;;15.80;99.90;;;;;;4996231;28;20976;-79
2022/07/09 01:34:07;;;;;;;7.70;6.93;;;15.70;99.90;;;;;;4996222;28;20448;-80
2022/07/09 01:36:35;;;;;;;8.93;7.93;;;15.70;99.90;;;;;;4997885;28;20502;-79
2022/07/09 01:39:05;;;;;;;8.50;6.90;;;15.70;99.90;;;;;;4997932;28;20527;-80
2022/07/09 01:41:33;;;;;;;7.67;6.93;;;15.70;99.90;;;;;;4996647;28;20501;-80
2022/07/09 01:44:01;;;;;;;9.23;8.30;;;15.70;99.90;;;;;;4997714;28;20460;-81
2022/07/09 01:46:29;;;;;;;7.80;7.00;;;15.70;99.90;;;;;;4996888;28;20424;-81
2022/07/09 01:48:57;;;;;;;7.70;6.90;;;15.60;99.90;;;;;;4996083;28;20449;-81
2022/07/09 01:51:26;;;;;;;8.40;7.70;;;15.60;99.90;;;;;;4997846;28;20563;-81
2022/07/09 01:53:54;;;;;;;8.23;7.53;;;15.60;99.90;;;;;;4996152;28;20424;-80
2022/07/09 01:56:24;;;;;;;7.53;6.80;;;15.60;99.90;;;;;;4997958;28;20487;-81
2022/07/09 01:58:52;;;;;;;10.80;6.60;;;15.60;99.90;;;;;;4995607;28;20474;-80
2022/07/09 02:01:20;;;;;;;9.63;7.73;;;15.60;99.90;;;;;;4996021;28;20437;-80
2022/07/09 02:03:48;;;;;;;7.63;6.93;;;15.60;99.90;;;;;;4996983;28;20782;-80
2022/07/09 02:06:17;;;;;;;8.20;7.27;;;15.60;99.90;;;;;;4997146;28;20472;-81
2022/07/09 02:08:45;;;;;;;7.60;6.50;;;15.60;99.90;;;;;;4996298;28;20951;-80
2022/07/09 02:11:13;;;;;;;8.90;7.03;;;15.60;99.90;;;;;;4997017;28;20465;-79
2022/07/09 02:13:43;;;;;;;8.40;7.57;;;15.60;99.90;;;;;;4995498;28;20896;-80
2022/07/09 02:16:11;;;;;;;7.90;7.00;;;15.50;99.90;;;;;;4995536;28;20442;-80
2022/07/09 02:18:39;;;;;;;8.97;8.03;;;15.50;99.90;;;;;;4999065;28;20847;-80
2022/07/09 02:21:08;;;;;;;9.53;7.80;;;15.50;99.90;;;;;;5000597;28;20465;-81
2022/07/09 02:23:37;;;;;;;8.80;7.43;;;15.50;99.90;;;;;;5000766;28;20807;-80
2022/07/09 02:26:05;;;;;;;8.07;7.30;;;15.50;99.90;;;;;;4999370;28;20419;-81
2022/07/09 02:28:34;;;;;;;9.67;7.40;;;15.50;99.90;;;;;;5000869;28;20415;-79
2022/07/09 02:31:05;;;;;;;11.20;7.30;;;15.50;99.90;;;;;;4998971;28;20447;-80
2022/07/09 02:33:33;;;;;;;9.33;6.93;;;15.50;99.90;;;;;;4998641;28;20485;-80
2022/07/09 02:36:01;;;;;;;9.30;7.67;;;15.50;99.90;;;;;;4998995;28;20456;-79
2022/07/09 02:38:30;;;;;;;7.73;6.90;;;15.50;99.90;;;;;;4998627;28;21053;-80
2022/07/09 02:40:58;;;;;;;9.97;7.60;;;15.50;99.90;;;;;;4999131;28;20544;-78
2022/07/09 02:43:26;;;;;;;8.07;7.23;;;15.50;99.90;;;;;;4999909;28;20823;-81
2022/07/09 02:45:55;;;;;;;8.20;7.20;;;15.50;99.90;;;;;;4999880;28;20527;-81
2022/07/09 02:48:26;;;;;;;9.20;7.30;;;15.50;99.90;;;;;;4998634;28;20461;-82
2022/07/09 02:50:54;;;;;;;8.73;7.50;;;15.50;99.90;;;;;;4998694;28;20475;-80
2022/07/09 02:53:22;;;;;;;11.60;8.20;;;15.50;99.90;;;;;;4998715;28;20565;-81
2022/07/09 02:55:50;;;;;;;9.10;8.17;;;15.50;99.90;;;;;;5001575;28;20472;-82
2022/07/09 02:58:19;;;;;;;9.37;8.17;;;15.50;99.90;;;;;;5000337;28;20441;-80
2022/07/09 03:00:47;;;;;;;10.80;8.83;;;15.50;99.90;;;;;;5000015;28;20611;-82
2022/07/09 03:03:16;;;;;;;10.67;9.67;;;15.50;99.90;;;;;;5001014;28;20448;-80
2022/07/09 03:05:45;;;;;;;10.20;8.10;;;15.50;99.90;;;;;;5000189;28;20451;-82
2022/07/09 03:08:14;;;;;;;8.80;7.80;;;15.50;99.90;;;;;;4999449;28;20420;-82
2022/07/09 03:10:42;;;;;;;10.80;8.87;;;15.50;99.90;;;;;;5000436;28;20526;-81
2022/07/09 03:13:10;;;;;;;10.23;9.33;;;15.50;99.90;;;;;;4999380;28;20456;-81
2022/07/09 03:15:40;;;;;;;10.23;8.43;;;15.50;99.90;;;;;;4999783;28;20452;-81
2022/07/09 03:18:09;;;;;;;11.30;9.33;;;15.50;99.90;;;;;;5002600;28;20536;-81
2022/07/09 03:20:38;;;;;;;10.47;8.77;;;15.60;99.90;;;;;;5000573;28;20517;-81
2022/07/09 03:23:07;;;;;;;10.80;9.50;;;15.60;99.90;;;;;;4998890;28;20423;-80
2022/07/09 03:25:35;;;;;;;12.50;11.00;;;15.50;99.90;;;;;;4999277;28;20491;-81
2022/07/09 03:28:05;;;;;;;13.77;10.13;;;15.60;99.90;;;;;;4999517;28;20523;-81
2022/07/09 03:30:33;;;;;;;13.00;10.00;;;15.60;99.90;;;;;;4998821;28;20883;-81
2022/07/09 03:33:02;;;;;;;12.43;11.13;;;15.60;99.90;;;;;;5000154;28;20564;-80
2022/07/09 03:35:30;;;;;;;11.93;10.30;;;15.60;99.90;;;;;;4998454;28;20420;-80
2022/07/09 03:37:58;;;;;;;15.70;11.37;;;15.60;99.90;;;;;;4999970;28;20465;-80
2022/07/09 03:40:29;;;;;;;12.30;10.60;;;15.60;99.90;;;;;;4998135;28;20870;-80
2022/07/09 03:42:57;;;;;;;15.50;12.30;;;15.60;99.90;;;;;;4998412;28;20494;-81
2022/07/09 03:45:26;;;;;;;13.20;11.90;;;15.60;99.90;;;;;;4998659;28;20477;-82
2022/07/09 03:47:54;;;;;;;14.37;12.00;;;15.60;99.90;;;;;;4998553;28;20484;-81
2022/07/09 03:50:22;;;;;;;12.70;11.33;;;15.70;99.90;;;;;;4998342;28;20468;-80
2022/07/09 03:52:51;;;;;;;12.93;11.47;;;15.70;99.90;;;;;;4999047;28;20455;-82
2022/07/09 03:55:20;;;;;;;15.10;12.30;;;15.70;99.90;;;;;;4998980;28;20480;-81
2022/07/09 03:57:50;;;;;;;13.70;12.30;;;15.70;99.90;;;;;;4999744;28;20507;-81
2022/07/09 04:00:19;;;;;;;17.20;13.07;;;15.70;99.90;;;;;;4998292;28;20494;-80
2022/07/09 04:02:47;;;;;;;19.37;13.03;;;15.70;99.90;;;;;;4999696;28;20433;-80
2022/07/09 04:05:15;;;;;;;14.40;12.90;;;15.80;99.90;;;;;;5000732;28;20511;-79
2022/07/09 04:07:44;;;;;;;13.90;12.40;;;15.80;99.90;;;;;;4999024;28;20449;-80
2022/07/09 04:10:12;;;;;;;15.40;13.17;;;15.80;99.90;;;;;;4998559;28;20468;-80
2022/07/09 04:12:42;;;;;;;22.13;13.23;;;15.80;99.90;;;;;;5001130;28;20917;-82
2022/07/09 04:15:12;;;;;;;17.93;13.47;;;15.80;99.90;;;;;;4998001;28;20556;-80
2022/07/09 04:17:40;;;;;;;16.50;14.20;;;15.90;99.90;;;;;;4996643;28;20447;-82
2022/07/09 04:20:09;;;;;;;18.33;13.30;;;15.80;99.90;;;;;;4997423;28;20451;-81
2022/07/09 04:22:38;;;;;;;16.73;13.60;;;15.90;99.90;;;;;;4997407;28;20423;-81
2022/07/09 04:25:07;;;;;;;14.83;13.17;;;15.90;99.90;;;;;;4996319;28;20423;-82
2022/07/09 04:27:35;;;;;;;14.10;12.70;;;15.90;99.90;;;;;;4998197;28;20839;-81
2022/07/09 04:30:04;;;;;;;16.00;13.57;;;15.90;99.90;;;;;;4997058;28;20490;-81
2022/07/09 04:32:34;;;;;;;15.40;13.53;;;15.90;99.90;;;;;;4998069;28;20423;-81
2022/07/09 04:35:03;;;;;;;15.70;12.50;;;16.00;99.90;;;;;;4996482;28;20432;-81
2022/07/09 04:37:31;;;;;;;15.67;13.23;;;16.00;99.90;;;;;;4998749;28;20940;-80
2022/07/09 04:39:59;;;;;;;15.73;12.90;;;16.00;99.90;;;;;;4999934;28;20552;-81
2022/07/09 04:42:27;;;;;;;15.87;14.00;;;16.00;99.90;;;;;;5014817;28;20463;-81
2022/07/09 04:44:57;;;;;;;14.50;13.10;;;16.00;99.90;;;;;;5015850;28;20391;-82
2022/07/09 04:47:25;;;;;;;17.10;13.73;;;16.10;99.90;;;;;;5015257;28;20426;-80
2022/07/09 04:49:55;;;;;;;14.20;12.67;;;16.10;99.90;;;;;;5015049;28;20452;-80
2022/07/09 04:52:26;;;;;;;14.33;12.93;;;16.10;99.90;;;;;;5015372;28;20412;-81
2022/07/09 04:54:55;;;;;;;14.30;12.80;;;16.10;99.90;;;;;;5015967;28;20515;-80
2022/07/09 04:57:23;;;;;;;14.63;13.30;;;16.10;99.90;;;;;;5016295;28;20441;-80
2022/07/09 04:59:51;;;;;;;15.23;13.50;;;16.20;99.90;;;;;;5007653;28;20524;-80
2022/07/09 05:02:20;;;;;;;14.80;12.60;;;16.20;99.90;;;;;;5006292;28;20518;-80
2022/07/09 05:04:49;;;;;;;14.47;12.93;;;16.20;99.90;;;;;;5005000;28;20426;-81
2022/07/09 05:07:20;;;;;;;18.90;13.37;;;16.30;99.90;;;;;;5003561;28;20412;-81
2022/07/09 05:09:48;;;;;;;15.20;13.60;;;16.30;99.90;;;;;;4999293;28;20483;-81
2022/07/09 05:12:16;;;;;;;15.27;12.87;;;16.30;99.90;;;;;;4998645;28;20452;-80
2022/07/09 05:14:45;;;;;;;15.30;12.50;;;16.30;99.90;;;;;;4997155;28;20438;-80
2022/07/09 05:17:13;;;;;;;13.57;12.13;;;16.40;99.90;;;;;;4999654;28;20443;-81
2022/07/09 05:19:43;;;;;;;19.27;13.20;;;16.40;99.90;;;;;;4999101;28;20460;-81
2022/07/09 05:22:12;;;;;;;16.00;13.57;;;16.40;99.90;;;;;;4996701;28;20446;-81
2022/07/09 05:24:43;;;;;;;13.50;12.20;;;16.50;99.90;;;;;;4996307;28;20951;-80
2022/07/09 05:27:11;;;;;;;15.80;12.70;;;16.50;99.90;;;;;;4998472;28;20918;-82
2022/07/09 05:29:40;;;;;;;14.93;11.83;;;16.50;99.90;;;;;;4996357;28;20528;-79
2022/07/09 05:32:09;;;;;;;14.53;13.07;;;16.50;99.90;;;;;;4998059;28;20437;-80
2022/07/09 05:34:37;;;;;;;13.37;11.90;;;16.60;99.90;;;;;;4995358;28;20429;-80
2022/07/09 05:37:06;;;;;;;15.87;12.27;;;16.60;99.90;;;;;;4996231;28;20493;-81
2022/07/09 05:39:43;;;;;;;14.70;11.63;;;16.60;99.90;;;;;;4996894;28;20969;-81
2022/07/09 05:42:12;;;;;;;15.10;13.50;;;16.70;99.90;;;;;;4997066;28;20447;-83
2022/07/09 05:44:41;;;;;;;14.63;13.03;;;16.70;99.90;;;;;;4998980;28;20425;-80
2022/07/09 05:47:09;;;;;;;13.33;12.03;;;16.70;99.90;;;;;;4996792;28;20548;-80
2022/07/09 05:49:37;;;;;;;13.70;12.40;;;16.80;99.90;;;;;;4995829;28;20532;-78
2022/07/09 05:52:06;;;;;;;15.20;12.47;;;16.80;99.90;;;;;;5000654;28;20539;-79
2022/07/09 05:54:36;;;;;;;14.70;13.27;;;16.90;99.90;;;;;;5001638;28;20884;-80
2022/07/09 05:57:06;;;;;;;15.13;13.60;;;16.90;99.90;;;;;;4999759;28;21046;-81
2022/07/09 05:59:35;;;;;;;14.93;13.17;;;17.00;99.90;;;;;;5002525;28;20826;-82
2022/07/09 06:02:05;;;;;;;16.37;13.77;;;17.00;99.90;;;;;;5001188;28;20538;-82
2022/07/09 06:04:33;;;;;;;15.43;13.70;;;17.00;99.90;;;;;;5001698;28;20456;-81
2022/07/09 06:07:02;;;;;;;13.60;12.20;;;17.10;99.90;;;;;;5001557;28;20448;-82
2022/07/09 06:09:31;;;;;;;16.30;12.40;;;17.10;99.90;;;;;;5000151;28;21016;-83
2022/07/09 06:12:00;;;;;;;15.40;14.00;;;17.20;99.90;;;;;;5001462;28;20427;-82
2022/07/09 06:14:32;;;;;;;14.33;12.33;;;17.20;99.90;;;;;;5002574;28;20527;-82
2022/07/09 06:17:05;;;;;;;14.33;12.30;;;17.30;99.90;;;;;;5001056;28;20443;-81
2022/07/09 06:19:34;;;;;;;13.40;12.10;;;17.30;99.90;;;;;;5000947;28;20448;-82
2022/07/09 06:22:03;;;;;;;13.20;11.90;;;17.40;99.90;;;;;;5000621;28;20499;-82
2022/07/09 06:24:31;;;;;;;13.10;11.80;;;17.40;99.90;;;;;;5000129;28;20460;-82
2022/07/09 06:27:00;;;;;;;12.53;11.27;;;17.40;99.90;;;;;;4999682;28;20445;-83
2022/07/09 06:29:30;;;;;;;13.23;11.83;;;17.40;99.90;;;;;;4999816;28;20522;-83
2022/07/09 06:32:00;;;;;;;12.27;11.07;;;17.40;99.90;;;;;;5000250;28;20416;-82
2022/07/09 06:34:29;;;;;;;15.77;12.20;;;17.50;99.90;;;;;;5001139;28;20510;-83
2022/07/09 06:36:57;;;;;;;15.50;13.47;;;17.50;99.90;;;;;;5001093;28;20499;-81
2022/07/09 06:42:11;;;;;;;12.80;11.40;;;17.60;99.90;;;;;;4998948;28;20480;-80
2022/07/09 06:44:46;;;;;;;12.67;11.47;;;17.70;99.90;;;;;;4999744;28;20498;-81
2022/07/09 06:47:14;;;;;;;12.90;11.30;;;17.70;99.90;;;;;;5004546;28;20448;-83
2022/07/09 06:49:43;;;;;;;12.70;11.40;;;17.70;99.90;;;;;;5005593;28;21025;-83
2022/07/09 06:52:11;;;;;;;11.87;10.77;;;17.80;99.90;;;;;;5011386;28;20962;-83
2022/07/09 06:54:39;;;;;;;12.60;11.33;;;17.80;99.90;;;;;;5002925;28;20966;-82
2022/07/09 06:57:09;;;;;;;13.70;11.67;;;17.90;99.90;;;;;;5002405;28;21020;-82
2022/07/09 06:59:38;;;;;;;11.30;10.20;;;17.90;99.90;;;;;;5000929;28;20508;-82
2022/07/09 07:02:08;;;;;;;11.63;10.53;;;17.90;99.90;;;;;;5001036;28;20558;-82
2022/07/09 07:04:36;;;;;;;12.07;10.33;;;18.00;99.90;;;;;;4998938;28;20457;-81
2022/07/09 07:07:05;;;;;;;12.73;10.50;;;18.00;99.90;;;;;;5001080;28;20444;-82
2022/07/09 07:09:34;;;;;;;10.03;9.13;;;18.00;99.90;;;;;;5000989;28;20450;-81
2022/07/09 07:12:03;;;;;;;10.20;9.23;;;18.10;99.90;;;;;;4997889;28;20456;-79
2022/07/09 07:14:32;;;;;;;11.47;10.37;;;18.10;99.90;;;;;;4999212;28;20547;-81
2022/07/09 07:17:01;;;;;;;11.80;9.40;;;18.10;99.90;;;;;;4998943;28;20548;-82
2022/07/09 07:19:30;;;;;;;9.50;8.50;;;18.20;99.90;;;;;;4998590;28;20444;-81
2022/07/09 07:21:58;;;;;;;9.47;8.53;;;18.20;99.90;;;;;;5000490;28;20518;-81
2022/07/09 07:24:27;;;;;;;9.97;9.00;;;18.20;99.90;;;;;;4998993;28;20481;-80
2022/07/09 07:26:56;;;;;;;9.30;8.40;;;18.30;99.90;;;;;;4997126;28;20971;-80
2022/07/09 07:29:24;;;;;;;9.60;8.60;;;18.30;99.90;;;;;;5000111;28;20432;-80
2022/07/09 07:31:53;;;;;;;9.83;8.23;;;18.40;99.90;;;;;;4998772;28;20476;-78
2022/07/09 07:34:23;;;;;;;8.13;7.33;;;18.50;99.90;;;;;;4998394;28;20511;-81
2022/07/09 07:36:53;;;;;;;8.93;8.00;;;18.50;99.90;;;;;;4998917;28;20459;-81
2022/07/09 07:39:24;;;;;;;8.23;7.43;;;18.60;99.90;;;;;;4999530;28;20966;-80
2022/07/09 07:41:53;;;;;;;8.47;7.77;;;18.60;99.90;;;;;;4999670;28;20465;-80
2022/07/09 07:44:22;;;;;;;7.80;6.83;;;18.60;99.90;;;;;;4997921;28;20453;-81
2022/07/09 07:46:51;;;;;;;7.10;6.40;;;18.70;99.90;;;;;;5000877;28;20444;-80
2022/07/09 07:49:20;;;;;;;8.63;7.73;;;18.70;99.90;;;;;;4998269;28;20444;-81
2022/07/09 07:51:49;;;;;;;7.77;7.00;;;18.70;99.90;;;;;;4999181;28;20455;-80
2022/07/09 07:54:21;;;;;;;7.90;7.03;;;18.70;99.90;;;;;;4997873;28;20961;-83
2022/07/09 07:56:51;;;;;;;7.03;6.20;;;18.80;99.90;;;;;;4997978;28;20449;-82
2022/07/09 07:59:19;;;;;;;6.40;5.80;;;18.80;99.90;;;;;;4997645;28;20496;-83
2022/07/09 08:01:47;;;;;;;8.23;6.17;;;18.90;99.90;;;;;;4998951;28;20897;-83
2022/07/09 08:04:15;;;;;;;7.70;5.47;;;19.00;99.90;;;;;;4999429;28;20455;-84
2022/07/09 08:06:44;;;;;;;6.87;6.20;;;19.00;99.90;;;;;;4997227;28;20463;-84
2022/07/09 08:09:12;;;;;;;6.43;5.60;;;19.20;99.90;;;;;;4997565;28;20453;-81
2022/07/09 08:11:42;;;;;;;8.00;5.67;;;19.20;99.90;;;;;;4998667;28;20472;-81
2022/07/09 08:14:10;;;;;;;5.93;5.00;;;19.30;99.90;;;;;;4997359;28;20459;-80
2022/07/09 08:16:38;;;;;;;7.73;5.00;;;19.30;99.90;;;;;;4997071;28;20460;-83
2022/07/09 08:19:06;;;;;;;7.83;5.60;;;19.40;99.90;;;;;;4997876;28;20448;-81
2022/07/09 08:21:34;;;;;;;9.00;5.00;;;19.40;99.90;;;;;;4998552;28;20473;-82
2022/07/09 08:24:05;;;;;;;8.57;5.53;;;19.50;99.90;;;;;;4997638;28;20456;-82
2022/07/09 08:26:33;;;;;;;5.80;5.30;;;19.50;99.90;;;;;;4997791;28;20548;-82
2022/07/09 08:29:03;;;;;;;5.97;5.00;;;19.60;99.90;;;;;;5000086;28;20480;-81
2022/07/09 08:31:32;;;;;;;5.90;5.30;;;19.70;99.90;;;;;;5001815;28;20452;-82
2022/07/09 08:34:00;;;;;;;5.17;4.47;;;19.80;99.90;;;;;;5000286;28;20896;-82
2022/07/09 08:36:29;;;;;;;5.50;5.00;;;19.90;99.90;;;;;;4999710;28;20460;-80
2022/07/09 08:38:58;;;;;;;4.90;4.40;;;20.10;99.90;;;;;;4997146;28;20441;-81
2022/07/09 08:41:29;;;;;;;4.97;4.40;;;20.10;99.90;;;;;;4997045;28;20473;-81
2022/07/09 08:43:58;;;;;;;4.00;3.70;;;20.20;99.90;;;;;;4998532;28;20472;-82
2022/07/09 08:46:33;;;;;;;5.80;3.97;;;20.40;99.90;;;;;;4999818;28;21024;-80
2022/07/09 08:49:09;;;;;;;3.77;3.23;;;20.40;99.90;;;;;;4999014;28;20439;-83
2022/07/09 08:51:37;;;;;;;7.67;3.50;;;20.50;99.90;;;;;;4999796;28;20468;-81
2022/07/09 08:54:08;;;;;;;3.70;3.10;;;20.60;99.90;;;;;;5002975;28;20461;-80
2022/07/09 08:56:36;;;;;;;4.73;3.50;;;20.80;99.90;;;;;;4997314;28;20804;-79
2022/07/09 08:59:05;;;;;;;3.67;2.90;;;20.90;99.90;;;;;;4997617;28;20455;-80
2022/07/09 09:01:34;;;;;;;4.47;2.80;;;20.90;99.90;;;;;;4997728;28;20456;-80
2022/07/09 09:04:03;;;;;;;5.17;3.30;;;20.90;99.90;;;;;;4996402;28;20479;-81
2022/07/09 09:06:38;;;;;;;3.83;2.90;;;21.00;99.90;;;;;;4997201;28;20455;-79
2022/07/09 09:09:11;;;;;;;3.23;2.90;;;21.10;99.90;;;;;;4995953;28;20974;-79
2022/07/09 09:11:39;;;;;;;3.93;2.50;;;21.10;99.90;;;;;;4996105;28;20981;-82
2022/07/09 09:14:07;;;;;;;4.73;2.83;;;21.20;99.90;;;;;;4998081;28;20452;-81
2022/07/09 09:16:44;;;;;;;2.60;2.17;;;21.20;99.90;;;;;;4996143;28;20559;-80
2022/07/09 09:19:13;;;;;;;3.07;2.33;;;21.30;99.90;;;;;;4996467;28;20562;-80
2022/07/09 09:21:41;;;;;;;3.70;2.20;;;21.30;99.90;;;;;;4994778;28;20468;-81
2022/07/09 09:24:09;;;;;;;4.00;2.20;;;21.40;99.90;;;;;;4994285;28;20563;-80
2022/07/09 09:26:38;;;;;;;2.10;1.80;;;21.40;99.90;;;;;;4996349;28;20432;-80
2022/07/09 09:29:07;;;;;;;3.63;2.60;;;21.50;99.90;;;;;;4996170;28;20534;-80
2022/07/09 09:31:37;;;;;;;2.53;2.00;;;21.60;99.90;;;;;;4996405;28;20507;-82
2022/07/09 09:34:15;;;;;;;2.70;2.37;;;21.70;99.90;;;;;;4997162;28;21008;-81
2022/07/09 09:36:44;;;;;;;3.33;2.10;;;21.80;99.90;;;;;;4997964;28;20448;-82
2022/07/09 09:39:15;;;;;;;3.30;2.53;;;21.90;99.90;;;;;;4996759;28;20962;-81
2022/07/09 09:41:44;;;;;;;2.53;1.97;;;21.90;99.90;;;;;;4998656;28;20459;-81
2022/07/09 09:44:14;;;;;;;2.40;1.97;;;21.90;99.90;;;;;;4998056;28;20476;-81
2022/07/09 09:46:43;;;;;;;2.03;1.63;;;22.00;99.90;;;;;;4995868;28;20441;-82
2022/07/09 09:49:14;;;;;;;4.60;1.87;;;22.00;99.90;;;;;;4997302;28;20491;-79
2022/07/09 09:51:49;;;;;;;4.03;2.17;;;22.10;99.90;;;;;;4995953;28;20567;-80
2022/07/09 09:54:18;;;;;;;2.33;2.10;;;22.10;99.90;;;;;;4995646;28;20452;-79
2022/07/09 09:56:47;;;;;;;2.83;2.10;;;22.10;99.90;;;;;;4996001;28;20508;-79
2022/07/09 09:59:16;;;;;;;2.73;1.90;;;22.20;99.90;;;;;;4998429;28;20452;-81
2022/07/09 10:01:45;;;;;;;2.20;1.73;;;22.20;99.90;;;;;;4997437;28;20551;-77
2022/07/09 10:04:16;;;;;;;2.90;1.93;;;22.20;99.90;;;;;;4998657;28;20479;-79
2022/07/09 10:06:45;;;;;;;3.00;1.80;;;22.20;99.90;;;;;;4997229;28;20425;-79
2022/07/09 10:09:15;;;;;;;3.13;1.80;;;22.20;99.90;;;;;;4996535;28;20500;-80
2022/07/09 10:11:44;;;;;;;2.37;1.93;;;22.10;99.90;;;;;;4995774;28;20500;-81
2022/07/09 10:14:18;;;;;;;2.80;2.03;;;22.00;99.90;;;;;;4995255;28;20445;-79
2022/07/09 10:16:46;;;;;;;1.97;1.67;;;21.90;99.90;;;;;;4996027;28;20437;-80
2022/07/09 10:19:25;;;;;;;2.73;1.70;;;21.90;99.90;;;;;;4994528;28;20453;-78
2022/07/09 10:21:54;;;;;;;2.93;1.57;;;21.80;99.90;;;;;;4996380;28;20421;-81
2022/07/09 10:24:27;;;;;;;2.80;1.70;;;21.70;99.90;;;;;;4994145;28;20469;-80
2022/07/09 10:27:05;;;;;;;2.50;1.70;;;21.60;99.90;;;;;;4995678;28;20433;-79
2022/07/09 10:29:34;;;;;;;3.63;2.73;;;21.60;99.90;;;;;;4995682;28;20424;-80
2022/07/09 10:32:02;;;;;;;2.67;1.63;;;21.50;99.90;;;;;;4995563;28;20424;-80
2022/07/09 10:34:55;;;;;;;2.87;1.60;;;21.40;99.90;;;;;;4996814;28;20483;-81
2022/07/09 10:37:42;;;;;;;2.93;2.00;;;21.30;99.90;;;;;;4995255;28;20452;-79
2022/07/09 10:40:12;;;;;;;3.23;2.57;;;21.20;99.90;;;;;;5000515;28;20476;-81
2022/07/09 10:42:41;;;;;;;3.00;2.27;;;21.30;99.90;;;;;;4999609;28;20484;-79
2022/07/09 10:45:26;;;;;;;3.53;2.20;;;21.30;99.90;;;;;;5001483;28;20941;-83
2022/07/09 10:47:56;;;;;;;3.70;2.50;;;21.20;99.90;;;;;;5000162;28;20452;-81
2022/07/09 10:50:28;;;;;;;3.70;2.30;;;21.20;99.90;;;;;;5000658;28;20468;-81
2022/07/09 10:52:57;;;;;;;3.40;2.70;;;21.10;99.90;;;;;;4999772;28;20464;-80
2022/07/09 10:55:27;;;;;;;3.00;2.40;;;21.00;99.90;;;;;;5002056;28;20437;-81
2022/07/09 10:57:55;;;;;;;4.63;2.50;;;20.90;99.90;;;;;;4999968;28;20955;-80
2022/07/09 11:00:25;;;;;;;3.47;2.20;;;20.90;99.90;;;;;;4999682;28;20516;-80
2022/07/09 11:02:55;;;;;;;4.50;2.30;;;20.80;99.90;;;;;;4999520;28;20453;-80
2022/07/09 11:05:26;;;;;;;3.00;2.67;;;20.80;99.90;;;;;;5000798;28;20520;-80
2022/07/09 11:07:59;;;;;;;4.20;2.50;;;20.80;99.90;;;;;;5001387;28;20436;-81
2022/07/09 11:10:27;;;;;;;5.40;2.90;;;20.90;99.90;;;;;;4999070;28;20547;-81
2022/07/09 11:12:58;;;;;;;3.80;3.13;;;21.00;99.90;;;;;;5000357;28;20487;-81
2022/07/09 11:15:28;;;;;;;6.47;2.60;;;21.10;99.90;;;;;;4999549;28;20444;-82
2022/07/09 11:17:58;;;;;;;5.10;2.30;;;21.30;99.90;;;;;;4999452;28;20451;-81
2022/07/09 11:20:29;;;;;;;3.17;2.17;;;21.40;99.90;;;;;;4998690;28;20508;-81
2022/07/09 11:22:59;;;;;;;2.33;2.13;;;21.50;99.90;;;;;;4998556;28;20548;-83
2022/07/09 11:25:29;;;;;;;4.43;1.97;;;21.60;99.90;;;;;;4999029;28;20856;-81
2022/07/09 11:28:00;;;;;;;6.33;2.40;;;21.70;99.90;;;;;;4999021;28;20966;-82
2022/07/09 11:30:29;;;;;;;2.63;2.10;;;21.60;99.90;;;;;;4999771;28;20461;-81
2022/07/09 11:32:58;;;;;;;3.60;1.90;;;21.60;99.90;;;;;;5000331;28;20814;-82
2022/07/09 11:35:32;;;;;;;2.10;1.60;;;21.60;99.90;;;;;;4999809;28;20489;-80
2022/07/09 11:38:03;;;;;;;2.57;1.90;;;21.40;99.90;;;;;;4998511;28;20547;-80
2022/07/09 11:40:31;;;;;;;4.10;1.87;;;21.30;99.90;;;;;;5003306;28;20476;-81
2022/07/09 11:42:59;;;;;;;2.33;1.80;;;21.20;99.90;;;;;;4998569;28;20458;-81
2022/07/09 11:45:29;;;;;;;2.87;2.07;;;21.20;99.90;;;;;;4998759;28;20504;-83
2022/07/09 11:48:06;;;;;;;4.33;2.30;;;21.10;99.90;;;;;;4997593;28;20795;-81
2022/07/09 11:50:43;;;;;;;3.80;2.60;;;21.20;99.90;;;;;;4997759;28;20468;-79
2022/07/09 11:53:21;;;;;;;4.30;2.40;;;21.20;99.90;;;;;;4997974;28;20972;-81
2022/07/09 11:56:00;;;;;;;3.10;2.10;;;21.20;99.90;;;;;;4997721;28;21012;-82
2022/07/09 11:58:29;;;;;;;2.97;2.03;;;21.20;99.90;;;;;;4997654;28;20432;-81
2022/07/09 12:00:59;;;;;;;3.80;2.30;;;21.10;99.90;;;;;;4998168;28;20551;-80
2022/07/09 12:03:29;;;;;;;6.00;3.07;;;21.00;99.90;;;;;;4999154;28;20445;-79
2022/07/09 12:05:59;;;;;;;5.90;2.90;;;21.00;99.90;;;;;;4999891;28;20424;-80
2022/07/09 12:08:29;;;;;;;3.67;2.70;;;21.10;99.90;;;;;;4997687;28;20481;-79
2022/07/09 12:10:59;;;;;;;5.23;2.90;;;21.10;99.90;;;;;;4997459;28;20472;-81
2022/07/09 12:13:28;;;;;;;6.67;2.30;;;21.10;99.90;;;;;;4999024;28;20441;-80
2022/07/09 12:15:57;;;;;;;5.73;3.23;;;21.10;99.90;;;;;;4997940;28;20884;-83
2022/07/09 12:18:26;;;;;;;4.20;2.57;;;21.10;99.90;;;;;;4997937;28;20495;-80
2022/07/09 12:20:56;;;;;;;5.17;2.90;;;21.10;99.90;;;;;;4998684;28;20465;-82
2022/07/09 12:23:25;;;;;;;4.83;3.20;;;21.10;99.90;;;;;;4997887;28;20444;-80
2022/07/09 12:25:54;;;;;;;4.80;3.00;;;21.10;99.90;;;;;;4996969;28;20568;-82
2022/07/09 12:28:22;;;;;;;4.97;2.80;;;21.10;99.90;;;;;;4996226;28;20452;-82
2022/07/09 12:30:50;;;;;;;5.90;3.67;;;21.10;99.90;;;;;;4997129;28;20559;-82
2022/07/09 12:33:19;;;;;;;4.63;2.80;;;21.20;99.90;;;;;;4998259;28;20483;-82
2022/07/09 12:35:48;;;;;;;5.07;3.00;;;21.20;99.90;;;;;;4999094;28;20449;-81
2022/07/09 12:38:16;;;;;;;6.57;3.00;;;21.20;99.90;;;;;;4998347;28;20476;-81
2022/07/09 12:40:46;;;;;;;6.10;3.10;;;21.20;99.90;;;;;;4999861;28;20468;-81
2022/07/09 12:43:15;;;;;;;4.60;3.07;;;21.20;99.90;;;;;;4996881;28;20519;-80
2022/07/09 12:45:43;;;;;;;4.63;2.47;;;21.30;99.90;;;;;;4996528;28;20481;-79
2022/07/09 12:48:11;;;;;;;6.70;3.23;;;21.30;99.90;;;;;;4997129;28;20444;-81
2022/07/09 12:50:39;;;;;;;5.10;2.60;;;21.40;99.90;;;;;;4999095;28;20471;-81
2022/07/09 12:53:07;;;;;;;7.37;3.17;;;21.40;99.90;;;;;;4996876;28;20445;-80
2022/07/09 12:55:36;;;;;;;4.40;2.87;;;21.40;99.90;;;;;;4997594;28;20445;-78